Time;durP1;ratioP1;P1;durP2;ratioP2;P2;SDS_P1;SDS_P2;PMS_P1;PMS_P2;Temp;Humidity;BMP_temperature;BMP_pressure;BME280_temperature;BME280_humidity;BME280_pressure;Samples;Min_cycle;Max_cycle;Signal;HPM_P1;HPM_P2
2022/11/08 00:01:31;;;;;;;3.17;2.10;;;17.50;68.90;18.70;100371.00;;;;5027548;28;20159;-49
2022/11/08 00:03:59;;;;;;;3.33;1.90;;;17.50;68.90;18.70;100368.00;;;;5027622;28;20659;-50
2022/11/08 00:14:38;;;;;;;2.83;1.80;;;17.50;69.70;18.60;100377.00;;;;5012684;28;20305;-51
2022/11/08 00:17:04;;;;;;;2.63;1.80;;;17.50;69.70;18.60;100380.00;;;;5027259;28;20276;-49
2022/11/08 00:19:29;;;;;;;2.20;1.87;;;17.50;68.80;18.60;100375.00;;;;5027991;28;20190;-50
2022/11/08 00:21:55;;;;;;;3.07;1.80;;;17.50;68.80;18.60;100374.00;;;;5027881;28;20512;-51
2022/11/08 00:24:21;;;;;;;2.13;1.80;;;17.40;68.80;18.60;100386.00;;;;5027584;28;20190;-49
2022/11/08 00:26:46;;;;;;;3.57;1.93;;;17.40;68.80;18.60;100369.00;;;;5027492;28;20694;-50
2022/11/08 00:29:13;;;;;;;2.43;2.00;;;17.40;68.80;18.60;100371.00;;;;5027573;28;20306;-50
2022/11/08 00:31:39;;;;;;;3.20;2.03;;;17.40;68.80;18.60;100387.00;;;;5027157;28;20736;-51
2022/11/08 00:34:05;;;;;;;2.57;1.90;;;17.40;68.90;18.50;100379.00;;;;5029329;28;20207;-49
2022/11/08 00:36:30;;;;;;;2.77;2.00;;;17.40;68.90;18.60;100381.00;;;;5031182;28;20206;-50
2022/11/08 00:38:56;;;;;;;2.77;1.90;;;17.40;68.80;18.60;100375.00;;;;5031233;28;20209;-50
2022/11/08 00:41:22;;;;;;;2.87;2.13;;;17.40;68.90;18.50;100379.00;;;;5031118;28;20175;-48
2022/11/08 00:43:48;;;;;;;2.83;1.93;;;17.40;69.00;18.50;100377.00;;;;5031313;28;20289;-50
2022/11/08 00:46:13;;;;;;;3.00;1.87;;;17.30;68.90;18.50;100374.00;;;;5031615;28;20179;-50
2022/11/08 00:48:39;;;;;;;2.83;1.93;;;17.40;69.00;18.50;100382.00;;;;5031391;28;20628;-51
2022/11/08 00:51:06;;;;;;;3.57;1.90;;;17.40;69.00;18.50;100378.00;;;;5031411;28;20178;-50
2022/11/08 00:53:32;;;;;;;2.53;1.77;;;17.40;69.00;18.50;100376.00;;;;5030996;28;20253;-50
2022/11/08 00:56:03;;;;;;;2.57;1.90;;;17.30;68.90;18.50;100379.00;;;;5030872;28;20202;-49
2022/11/08 00:58:29;;;;;;;3.13;1.97;;;17.30;69.00;18.50;100381.00;;;;5031151;28;20628;-49
2022/11/08 01:00:55;;;;;;;1.97;1.77;;;17.30;69.00;18.50;100377.00;;;;5030802;28;20202;-49
2022/11/08 01:03:22;;;;;;;2.50;1.80;;;17.30;69.00;18.50;100370.00;;;;5030556;28;20276;-49
2022/11/08 01:05:50;;;;;;;2.80;1.87;;;17.30;69.00;18.50;100380.00;;;;5030405;28;20174;-49
2022/11/08 01:08:16;;;;;;;2.10;1.90;;;17.40;69.00;18.50;100373.00;;;;5014453;28;20178;-50
2022/11/08 01:10:48;;;;;;;1.87;1.60;;;17.30;68.90;18.50;100372.00;;;;5033026;28;20221;-49
2022/11/08 01:13:13;;;;;;;1.93;1.73;;;17.40;69.00;18.50;100369.00;;;;5030965;28;20202;-49
2022/11/08 01:15:40;;;;;;;2.13;1.93;;;17.30;68.90;18.50;100376.00;;;;5030737;28;20202;-50
2022/11/08 01:18:07;;;;;;;1.87;1.60;;;17.30;68.80;18.50;100375.00;;;;5030780;28;20197;-50
2022/11/08 01:20:39;;;;;;;2.20;1.63;;;17.30;69.00;18.40;100364.00;;;;5031552;28;20171;-50
2022/11/08 01:23:05;;;;;;;2.07;1.70;;;17.30;69.00;18.40;100359.00;;;;5031665;28;20562;-50
2022/11/08 01:25:31;;;;;;;2.77;1.83;;;17.30;69.00;18.40;100364.00;;;;5031663;28;20186;-50
2022/11/08 01:27:57;;;;;;;1.80;1.60;;;17.30;69.00;18.40;100352.00;;;;5013266;28;20186;-50
2022/11/08 01:30:22;;;;;;;3.17;1.77;;;17.30;69.00;18.40;100356.00;;;;5013200;28;20178;-50
2022/11/08 01:32:48;;;;;;;2.10;1.90;;;17.30;69.00;18.40;100347.00;;;;5030390;28;20198;-50
2022/11/08 01:35:14;;;;;;;2.37;1.70;;;17.30;69.00;18.40;100348.00;;;;5030468;28;20178;-50
2022/11/08 01:37:39;;;;;;;2.10;1.70;;;17.30;69.00;18.40;100350.00;;;;5030188;28;20210;-50
2022/11/08 01:40:06;;;;;;;2.90;1.70;;;17.30;69.10;18.40;100343.00;;;;5030160;28;20187;-50
2022/11/08 01:42:32;;;;;;;1.70;1.60;;;17.30;69.10;18.40;100336.00;;;;5030049;28;20189;-50
2022/11/08 01:44:59;;;;;;;1.90;1.60;;;17.20;69.10;18.40;100326.00;;;;5028833;28;20241;-50
2022/11/08 01:47:25;;;;;;;1.83;1.67;;;17.20;69.10;18.40;100335.00;;;;5012615;28;20186;-50
2022/11/08 01:49:52;;;;;;;2.17;1.70;;;17.20;69.10;18.40;100325.00;;;;5030119;28;20177;-50
2022/11/08 01:52:22;;;;;;;1.80;1.70;;;17.20;69.10;18.30;100320.00;;;;5012276;28;20178;-50
2022/11/08 01:55:11;;;;;;;2.23;1.80;;;17.20;69.10;18.30;100315.00;;;;5030314;28;20407;-50
2022/11/08 01:57:50;;;;;;;1.70;1.60;;;17.20;69.10;18.30;100316.00;;;;5019300;28;20674;-50
2022/11/08 02:00:16;;;;;;;1.90;1.80;;;17.20;69.10;18.30;100320.00;;;;5030071;28;20825;-50
2022/11/08 02:02:43;;;;;;;2.77;1.80;;;17.20;69.10;18.30;100324.00;;;;5011917;28;20197;-50
2022/11/08 02:05:25;;;;;;;2.00;1.80;;;17.20;69.10;18.30;100316.00;;;;5012151;28;20270;-50
2022/11/08 02:08:04;;;;;;;2.13;1.77;;;17.20;69.10;18.30;100310.00;;;;4999627;28;20168;-50
2022/11/08 02:10:39;;;;;;;1.80;1.70;;;17.20;69.10;18.30;100320.00;;;;5030160;28;20170;-50
2022/11/08 02:13:08;;;;;;;1.80;1.70;;;17.20;69.10;18.30;100321.00;;;;5011576;28;20197;-50
2022/11/08 02:15:33;;;;;;;1.63;1.53;;;17.10;69.20;18.30;100303.00;;;;5012190;28;20213;-50
2022/11/08 02:17:59;;;;;;;1.90;1.80;;;17.20;69.40;18.30;100315.00;;;;5012079;28;20512;-50
2022/11/08 02:20:26;;;;;;;2.00;1.80;;;17.10;69.30;18.30;100312.00;;;;5012040;28;20171;-50
2022/11/08 02:22:58;;;;;;;2.00;1.73;;;17.10;69.30;18.30;100307.00;;;;5013200;28;20194;-50
2022/11/08 02:25:24;;;;;;;2.40;1.70;;;17.20;69.40;18.30;100293.00;;;;5013801;28;20181;-50
2022/11/08 02:27:50;;;;;;;1.80;1.70;;;17.10;69.30;18.30;100304.00;;;;5012182;28;20171;-50
2022/11/08 02:30:15;;;;;;;1.93;1.67;;;17.10;69.30;18.30;100294.00;;;;5029677;28;20174;-50
2022/11/08 02:32:41;;;;;;;1.70;1.60;;;17.10;69.20;18.30;100295.00;;;;5029012;28;20269;-50
2022/11/08 02:35:14;;;;;;;1.80;1.70;;;17.10;69.20;18.30;100290.00;;;;5028795;28;20293;-49
2022/11/08 02:37:39;;;;;;;2.30;1.70;;;17.10;69.20;18.30;100216.00;;;;5012666;28;20167;-51
2022/11/08 02:40:06;;;;;;;2.27;1.70;;;17.10;69.30;18.30;100301.00;;;;5029241;28;20178;-49
2022/11/08 02:42:31;;;;;;;1.80;1.70;;;17.10;69.30;18.30;100308.00;;;;5028565;28;20309;-49
2022/11/08 02:44:57;;;;;;;2.43;1.80;;;17.10;69.40;18.30;100296.00;;;;5028974;28;20182;-51
2022/11/08 02:47:23;;;;;;;2.10;1.80;;;17.10;69.30;18.30;100301.00;;;;5011168;28;20538;-49
2022/11/08 02:49:49;;;;;;;1.70;1.60;;;17.10;69.40;18.30;100311.00;;;;5028966;28;20175;-51
2022/11/08 02:52:15;;;;;;;1.73;1.60;;;17.10;69.40;18.30;100288.00;;;;5010888;28;20174;-50
2022/11/08 02:54:41;;;;;;;2.77;1.70;;;17.10;69.40;18.30;100284.00;;;;5028791;28;20212;-50
2022/11/08 02:57:06;;;;;;;2.00;1.80;;;17.10;69.40;18.30;100276.00;;;;5028603;28;20194;-50
2022/11/08 02:59:32;;;;;;;3.20;1.83;;;17.10;69.40;18.30;100274.00;;;;5028808;28;20297;-50
2022/11/08 03:01:58;;;;;;;2.27;1.70;;;17.10;69.90;18.30;100276.00;;;;5029273;28;20171;-50
2022/11/08 03:04:23;;;;;;;3.23;1.80;;;17.10;69.50;18.30;100261.00;;;;5028832;28;20537;-50
2022/11/08 03:06:49;;;;;;;1.77;1.67;;;17.10;69.50;18.30;100262.00;;;;5028635;28;20203;-50
2022/11/08 03:09:15;;;;;;;2.43;1.77;;;17.10;69.60;18.30;100248.00;;;;5011115;28;20373;-50
2022/11/08 03:11:41;;;;;;;1.77;1.67;;;17.10;69.50;18.30;100251.00;;;;5028430;28;20258;-50
2022/11/08 03:14:06;;;;;;;1.70;1.60;;;17.10;69.50;18.30;100256.00;;;;5028375;28;20222;-50
2022/11/08 03:16:32;;;;;;;2.27;1.77;;;17.10;69.50;18.30;100243.00;;;;5028296;28;20199;-50
2022/11/08 03:18:58;;;;;;;1.67;1.57;;;17.10;69.50;18.20;100251.00;;;;5028374;28;20171;-50
2022/11/08 03:21:23;;;;;;;1.70;1.60;;;17.10;69.40;18.20;100227.00;;;;5027916;28;20651;-50
2022/11/08 03:23:49;;;;;;;1.60;1.50;;;17.10;69.40;18.20;100231.00;;;;5027913;28;20183;-50
2022/11/08 03:26:15;;;;;;;1.80;1.40;;;17.00;69.30;18.20;100224.00;;;;5028368;28;20258;-50
2022/11/08 03:28:41;;;;;;;2.20;1.70;;;17.00;69.30;18.20;100223.00;;;;5028212;28;20414;-50
2022/11/08 03:31:06;;;;;;;2.13;1.83;;;17.00;69.20;18.20;100213.00;;;;5028231;28;20181;-50
2022/11/08 03:33:32;;;;;;;1.60;1.50;;;17.00;69.30;18.20;100213.00;;;;5010325;28;20575;-50
2022/11/08 03:35:58;;;;;;;1.60;1.50;;;17.00;69.20;18.20;100207.00;;;;5028031;28;20202;-50
2022/11/08 03:38:24;;;;;;;1.70;1.60;;;17.00;69.20;18.20;100200.00;;;;5029982;28;20193;-49
2022/11/08 03:40:49;;;;;;;1.73;1.63;;;17.00;69.20;18.20;100196.00;;;;5029119;28;20171;-50
2022/11/08 03:43:15;;;;;;;1.70;1.60;;;17.00;69.20;18.20;100186.00;;;;5027769;28;20194;-50
2022/11/08 03:45:41;;;;;;;1.83;1.60;;;17.00;69.20;18.20;100183.00;;;;5028187;28;20650;-50
2022/11/08 03:48:07;;;;;;;1.70;1.60;;;17.00;69.20;18.10;100199.00;;;;5028313;28;20181;-49
2022/11/08 03:50:32;;;;;;;1.80;1.70;;;16.90;69.20;18.10;100184.00;;;;5027982;28;20174;-50
2022/11/08 03:52:58;;;;;;;1.60;1.50;;;17.00;69.20;18.10;100130.00;;;;5027967;28;20208;-49
2022/11/08 03:55:25;;;;;;;1.90;1.70;;;17.00;69.10;18.10;100190.00;;;;5028181;28;20268;-50
2022/11/08 03:57:51;;;;;;;1.77;1.67;;;17.00;69.10;18.10;100192.00;;;;5010351;28;20197;-50
2022/11/08 04:00:20;;;;;;;1.30;1.23;;;16.90;69.00;18.10;100184.00;;;;5028035;28;20206;-51
2022/11/08 04:02:46;;;;;;;1.53;1.43;;;17.00;69.00;18.10;100187.00;;;;5009854;28;20193;-51
2022/11/08 04:05:12;;;;;;;1.80;1.70;;;17.00;69.00;18.10;100190.00;;;;5010005;28;20159;-50
2022/11/08 04:07:38;;;;;;;1.90;1.70;;;16.90;68.90;18.10;100180.00;;;;5010206;28;20635;-49
2022/11/08 04:10:04;;;;;;;2.00;1.80;;;16.90;69.00;18.10;100177.00;;;;5031816;28;20255;-49
2022/11/08 04:15:17;;;;;;;1.83;1.67;;;17.00;69.00;18.10;100180.00;;;;5032036;28;20615;-49
2022/11/08 04:23:15;;;;;;;2.37;1.70;;;16.90;69.00;18.10;100169.00;;;;5031928;28;20193;-50
2022/11/08 04:25:41;;;;;;;1.73;1.63;;;16.90;69.00;18.10;100170.00;;;;5031500;28;20166;-51
2022/11/08 04:28:07;;;;;;;1.80;1.57;;;16.90;69.00;18.10;100168.00;;;;5031551;28;20825;-50
2022/11/08 04:30:32;;;;;;;5.00;1.90;;;16.90;69.40;18.10;100170.00;;;;5031778;28;20179;-51
2022/11/08 04:33:00;;;;;;;5.80;1.90;;;16.90;69.50;18.00;100161.00;;;;5031436;28;20224;-49
2022/11/08 04:35:27;;;;;;;5.83;1.90;;;16.90;69.50;18.10;100164.00;;;;5031830;28;20711;-49
2022/11/08 04:38:02;;;;;;;3.40;1.47;;;16.90;69.40;18.10;100159.00;;;;5031701;28;20165;-49
2022/11/08 04:40:29;;;;;;;1.97;1.70;;;16.90;69.40;18.00;100154.00;;;;5031689;28;20156;-50
2022/11/08 04:42:55;;;;;;;2.97;1.63;;;16.90;69.30;18.10;100165.00;;;;5031343;28;20274;-49
2022/11/08 04:45:21;;;;;;;5.50;1.77;;;16.90;69.30;18.10;100169.00;;;;5031361;28;20273;-48
2022/11/08 04:47:47;;;;;;;2.53;1.80;;;16.90;69.20;18.10;100165.00;;;;5014733;28;20596;-49
2022/11/08 04:50:13;;;;;;;5.00;1.90;;;16.90;69.20;18.00;100160.00;;;;5032677;28;20331;-49
2022/11/08 04:52:39;;;;;;;2.43;1.50;;;16.90;69.20;18.00;100152.00;;;;5032087;28;20216;-49
2022/11/08 04:55:06;;;;;;;2.20;1.90;;;16.90;69.20;18.00;100155.00;;;;5010505;28;20194;-49
2022/11/08 04:57:31;;;;;;;1.97;1.77;;;16.90;69.20;18.00;100147.00;;;;5011462;28;20207;-49
2022/11/08 04:59:57;;;;;;;2.10;1.70;;;16.80;69.00;18.00;100158.00;;;;5012002;28;20171;-49
2022/11/08 05:02:23;;;;;;;1.63;1.53;;;16.90;69.00;18.00;100137.00;;;;5011229;28;20174;-49
2022/11/08 05:04:49;;;;;;;1.90;1.63;;;16.80;68.90;18.00;100137.00;;;;5011425;28;20167;-49
2022/11/08 05:07:14;;;;;;;2.50;1.57;;;16.80;68.90;18.00;100135.00;;;;5009849;28;20184;-50
2022/11/08 05:09:40;;;;;;;2.47;1.63;;;16.80;68.90;18.00;100126.00;;;;5011518;28;20198;-49
2022/11/08 05:12:06;;;;;;;2.40;1.90;;;16.90;69.00;18.00;100125.00;;;;4993744;28;20182;-50
2022/11/08 05:14:31;;;;;;;2.53;1.77;;;16.80;68.90;18.00;100120.00;;;;4994320;28;20414;-50
2022/11/08 05:16:58;;;;;;;2.00;1.80;;;16.80;68.90;18.00;100119.00;;;;5011011;28;20710;-50
2022/11/08 05:24:52;;;;;;;3.67;1.90;;;16.80;68.80;17.90;100093.00;;;;4996807;28;20217;-50
2022/11/08 05:27:18;;;;;;;2.63;1.80;;;16.70;68.70;17.90;100101.00;;;;5011396;28;20398;-50
2022/11/08 05:29:44;;;;;;;5.23;2.00;;;16.80;68.70;17.90;100089.00;;;;5011542;28;20647;-49
2022/11/08 05:32:09;;;;;;;3.60;1.83;;;16.80;68.70;17.90;100090.00;;;;5010955;28;20181;-49
2022/11/08 05:34:35;;;;;;;5.10;2.00;;;16.80;68.70;17.90;100079.00;;;;5011073;28;20211;-50
2022/11/08 05:37:01;;;;;;;1.87;1.53;;;16.80;68.70;17.90;100086.00;;;;5009809;28;20194;-49
2022/11/08 05:39:26;;;;;;;3.37;1.87;;;16.80;68.60;17.90;100082.00;;;;5010951;28;20164;-50
2022/11/08 05:41:52;;;;;;;3.80;2.00;;;16.80;68.60;17.90;100070.00;;;;5011191;28;20174;-49
2022/11/08 05:44:18;;;;;;;2.73;1.77;;;16.70;69.40;17.90;100077.00;;;;5013271;28;20225;-50
2022/11/08 05:46:43;;;;;;;3.20;2.00;;;16.70;68.50;17.90;100075.00;;;;5012348;28;20191;-50
2022/11/08 05:49:09;;;;;;;1.90;1.70;;;16.70;68.50;17.90;100067.00;;;;5012105;28;20662;-50
2022/11/08 05:51:35;;;;;;;2.33;1.87;;;16.70;68.50;17.90;100061.00;;;;5010520;28;20178;-50
2022/11/08 05:54:00;;;;;;;2.87;2.00;;;16.70;68.60;17.90;100069.00;;;;5010943;28;20364;-50
2022/11/08 05:56:26;;;;;;;5.67;2.20;;;16.70;68.50;17.90;100077.00;;;;5010641;28;20212;-50
2022/11/08 05:58:52;;;;;;;5.57;2.00;;;16.70;68.50;17.90;100066.00;;;;5010738;28;20171;-50
2022/11/08 06:01:18;;;;;;;6.60;2.30;;;16.70;68.50;17.90;100044.00;;;;5010696;28;20175;-50
2022/11/08 06:03:44;;;;;;;6.67;2.40;;;16.70;68.50;17.90;100044.00;;;;4993292;28;20196;-50
2022/11/08 06:06:16;;;;;;;9.90;2.30;;;16.70;68.50;17.90;100047.00;;;;5010592;28;20675;-49
2022/11/08 06:08:41;;;;;;;8.40;2.00;;;16.70;68.50;17.80;100031.00;;;;5011805;28;20193;-49
2022/11/08 06:11:10;;;;;;;3.63;2.20;;;16.70;68.60;17.80;100030.00;;;;5010957;28;20272;-50
2022/11/08 06:13:36;;;;;;;9.60;2.43;;;16.70;68.50;17.80;100026.00;;;;4992488;28;20614;-49
2022/11/08 06:16:03;;;;;;;7.57;2.40;;;16.70;68.50;17.80;100012.00;;;;5009367;28;20206;-49
2022/11/08 06:18:30;;;;;;;6.10;1.90;;;16.70;68.50;17.80;100012.00;;;;4990389;28;20225;-49
2022/11/08 06:21:00;;;;;;;3.53;2.00;;;16.70;68.50;17.80;100007.00;;;;4991926;28;20711;-50
2022/11/08 06:23:26;;;;;;;5.03;2.20;;;16.70;68.60;17.80;100016.00;;;;5008554;28;20288;-49
2022/11/08 06:25:52;;;;;;;5.83;2.23;;;16.70;68.50;17.80;100006.00;;;;4990445;28;20174;-49
2022/11/08 06:28:18;;;;;;;6.90;1.93;;;16.70;68.50;17.80;100011.00;;;;4990899;28;20377;-50
2022/11/08 06:30:44;;;;;;;5.30;2.20;;;16.60;68.60;17.80;100013.00;;;;5009484;28;20191;-50
2022/11/08 06:33:09;;;;;;;9.07;2.23;;;16.70;68.80;17.80;100026.00;;;;5009213;28;20684;-49
2022/11/08 06:35:36;;;;;;;5.37;2.10;;;16.70;69.00;17.80;100023.00;;;;5010178;28;20180;-50
2022/11/08 06:38:02;;;;;;;4.80;2.23;;;16.70;69.00;17.80;100023.00;;;;5009440;28;20185;-49
2022/11/08 06:40:28;;;;;;;4.90;2.60;;;16.60;69.00;17.80;100014.00;;;;5010002;28;20244;-49
2022/11/08 06:42:53;;;;;;;5.10;2.67;;;16.60;69.10;17.80;100030.00;;;;4992149;28;20682;-49
2022/11/08 06:45:19;;;;;;;3.63;2.20;;;16.60;69.20;17.80;100018.00;;;;5010287;28;20641;-49
2022/11/08 06:47:45;;;;;;;6.03;2.10;;;16.60;69.20;17.80;100035.00;;;;4992250;28;20712;-49
2022/11/08 06:50:11;;;;;;;4.90;2.47;;;16.60;69.10;17.80;100026.00;;;;5009854;28;20171;-49
2022/11/08 06:52:36;;;;;;;6.67;2.47;;;16.60;69.00;17.80;100029.00;;;;5009672;28;20199;-49
2022/11/08 06:55:02;;;;;;;6.50;2.63;;;16.60;69.10;17.80;100033.00;;;;5009504;28;20193;-49
2022/11/08 06:57:28;;;;;;;4.97;2.50;;;16.60;69.20;17.80;100042.00;;;;5009519;28;20209;-49
2022/11/08 06:59:54;;;;;;;4.53;2.40;;;16.60;69.60;17.80;100032.00;;;;5009651;28;20687;-50
2022/11/08 07:02:19;;;;;;;6.53;2.50;;;16.60;69.90;17.70;100035.00;;;;5009320;28;20189;-49
2022/11/08 07:04:45;;;;;;;9.57;2.53;;;16.60;70.10;17.80;100041.00;;;;5011223;28;20222;-49
2022/11/08 07:07:11;;;;;;;11.37;2.80;;;16.60;70.10;17.70;100037.00;;;;5011025;28;20189;-50
2022/11/08 07:09:37;;;;;;;7.30;2.73;;;16.60;70.40;17.70;100046.00;;;;5011699;28;20417;-50
2022/11/08 07:12:02;;;;;;;11.70;2.97;;;16.60;70.70;17.70;100048.00;;;;5011169;28;20190;-50
2022/11/08 07:14:28;;;;;;;10.93;3.10;;;16.60;70.80;17.70;100048.00;;;;5007875;28;20201;-50
2022/11/08 07:16:54;;;;;;;12.57;2.90;;;16.60;70.70;17.70;100039.00;;;;5008064;28;20216;-50
2022/11/08 07:19:19;;;;;;;12.37;2.77;;;16.50;70.90;17.70;100058.00;;;;5008497;28;20202;-50
2022/11/08 07:21:45;;;;;;;7.73;2.50;;;16.60;70.90;17.70;100058.00;;;;5010696;28;20267;-50
2022/11/08 07:24:11;;;;;;;9.37;2.40;;;16.60;70.70;17.70;100060.00;;;;5011108;28;20543;-50
2022/11/08 07:26:37;;;;;;;8.83;2.50;;;16.60;71.40;17.70;100060.00;;;;5009789;28;20182;-50
2022/11/08 07:29:02;;;;;;;6.27;2.53;;;16.60;70.50;17.70;100048.00;;;;5010125;28;20278;-50
2022/11/08 07:31:28;;;;;;;7.37;2.70;;;16.60;70.50;17.70;100046.00;;;;5005890;28;20192;-50
2022/11/08 07:33:54;;;;;;;6.43;2.50;;;16.60;70.50;17.50;100043.00;;;;4896978;28;20556;-50
2022/11/08 07:36:19;;;;;;;8.10;2.47;;;16.60;70.40;17.70;100039.00;;;;5009382;28;20198;-49
2022/11/08 07:38:45;;;;;;;10.00;2.50;;;16.60;70.60;17.70;100031.00;;;;5008900;28;20262;-48
2022/11/08 07:41:11;;;;;;;5.87;2.40;;;16.60;70.70;17.70;100046.00;;;;5008741;28;20547;-46
2022/11/08 07:43:36;;;;;;;8.77;2.30;;;16.60;70.70;17.70;100034.00;;;;5008638;28;20242;-47
2022/11/08 07:46:02;;;;;;;7.33;2.50;;;16.60;70.70;17.70;100044.00;;;;5008611;28;20231;-46
2022/11/08 07:48:28;;;;;;;5.10;2.60;;;16.60;70.70;17.70;100053.00;;;;5008936;28;20207;-47
2022/11/08 07:50:54;;;;;;;7.67;2.73;;;16.60;70.80;17.70;100054.00;;;;5008416;28;20616;-46
2022/11/08 07:53:20;;;;;;;11.40;2.97;;;16.50;70.90;17.70;100046.00;;;;5008758;28;20331;-46
2022/11/08 07:55:49;;;;;;;5.73;2.63;;;16.50;71.70;17.70;100067.00;;;;5008209;28;20215;-47
2022/11/08 07:58:15;;;;;;;10.43;2.63;;;16.50;70.90;17.70;100077.00;;;;4991899;28;20563;-48
2022/11/08 08:00:42;;;;;;;6.20;2.83;;;16.50;70.90;17.70;100067.00;;;;5008560;28;20169;-46
2022/11/08 08:03:10;;;;;;;6.37;2.47;;;16.50;70.90;17.70;100066.00;;;;4990711;28;20199;-46
2022/11/08 08:05:41;;;;;;;5.23;2.33;;;16.50;71.00;17.70;100056.00;;;;5014053;28;20180;-46
2022/11/08 08:08:07;;;;;;;7.13;2.70;;;16.60;71.10;17.70;100056.00;;;;5015826;28;20183;-47
2022/11/08 08:10:33;;;;;;;6.90;2.67;;;16.50;70.90;17.70;100049.00;;;;5008896;28;20178;-46
2022/11/08 08:12:59;;;;;;;6.53;2.80;;;16.50;70.80;17.70;100047.00;;;;5008469;28;20662;-46
2022/11/08 08:15:25;;;;;;;9.27;2.50;;;16.60;70.90;17.70;100049.00;;;;5008967;28;20450;-47
2022/11/08 08:17:51;;;;;;;7.13;2.40;;;16.60;70.80;17.70;100047.00;;;;5009531;28;20177;-47
2022/11/08 08:20:16;;;;;;;5.10;2.40;;;16.50;70.70;17.60;100041.00;;;;5008816;28;20180;-47
2022/11/08 08:22:44;;;;;;;4.83;2.57;;;16.60;70.90;17.60;100046.00;;;;5009098;28;20649;-47
2022/11/08 08:25:10;;;;;;;4.53;2.40;;;16.60;70.80;17.60;100057.00;;;;5009144;28;20201;-47
2022/11/08 08:27:36;;;;;;;5.87;2.40;;;16.50;70.70;17.60;100043.00;;;;5008407;28;20279;-47
2022/11/08 08:30:01;;;;;;;5.10;2.20;;;16.50;70.60;17.60;100044.00;;;;5009171;28;20181;-47
2022/11/08 08:32:27;;;;;;;4.97;2.30;;;16.50;70.60;17.60;100048.00;;;;5008741;28;20192;-46
2022/11/08 08:34:53;;;;;;;7.20;2.20;;;16.50;70.50;17.60;100051.00;;;;5009884;28;20177;-46
2022/11/08 08:37:18;;;;;;;3.63;2.10;;;16.50;70.60;17.60;100048.00;;;;4994746;28;20661;-47
2022/11/08 08:39:45;;;;;;;3.20;2.20;;;16.50;70.50;17.60;100047.00;;;;5009960;28;20212;-47
2022/11/08 08:42:11;;;;;;;3.40;2.17;;;16.60;70.70;17.60;100046.00;;;;5008384;28;20684;-47
2022/11/08 08:44:36;;;;;;;3.50;2.23;;;16.60;70.60;17.60;100045.00;;;;5008416;28;20192;-47
2022/11/08 08:47:02;;;;;;;3.60;2.30;;;16.50;70.50;17.60;100048.00;;;;5009003;28;20183;-47
2022/11/08 08:49:28;;;;;;;2.30;2.10;;;16.50;70.40;17.60;100065.00;;;;5008394;28;20204;-47
2022/11/08 08:51:53;;;;;;;6.67;2.27;;;16.50;70.40;17.60;100050.00;;;;5008351;28;20180;-47
2022/11/08 08:54:19;;;;;;;6.60;2.23;;;16.50;70.40;17.60;100056.00;;;;5009030;28;20213;-47
2022/11/08 08:56:45;;;;;;;4.10;2.30;;;16.50;70.50;17.60;100047.00;;;;5012154;28;20210;-48
2022/11/08 08:59:11;;;;;;;3.90;2.07;;;16.50;70.40;17.60;100044.00;;;;5012296;28;20176;-47
2022/11/08 09:01:36;;;;;;;4.23;2.30;;;16.50;70.50;17.60;100037.00;;;;5012037;28;20535;-46
2022/11/08 09:04:03;;;;;;;3.37;2.00;;;16.50;70.50;17.60;100041.00;;;;5012239;28;20220;-47
2022/11/08 09:06:29;;;;;;;3.90;2.33;;;16.50;70.60;17.60;100032.00;;;;5012211;28;20175;-47
2022/11/08 09:08:54;;;;;;;3.93;2.20;;;16.50;70.50;17.60;100035.00;;;;5012265;28;20202;-47
2022/11/08 09:11:20;;;;;;;4.23;2.13;;;16.50;70.60;17.60;100021.00;;;;4994671;28;20202;-47
2022/11/08 09:13:46;;;;;;;3.10;1.90;;;16.50;70.50;17.60;100022.00;;;;5011902;28;20252;-46
2022/11/08 09:16:13;;;;;;;3.07;2.20;;;16.50;70.70;17.60;100033.00;;;;5011684;28;20257;-46
2022/11/08 09:18:38;;;;;;;2.93;2.20;;;16.50;71.50;17.60;100044.00;;;;5011232;28;20179;-48
2022/11/08 09:21:04;;;;;;;4.30;2.10;;;16.50;70.70;17.60;100029.00;;;;5011591;28;20652;-46
2022/11/08 09:23:30;;;;;;;2.30;2.07;;;16.40;70.60;17.60;100042.00;;;;5011471;28;20185;-45
2022/11/08 09:26:01;;;;;;;2.50;1.93;;;16.50;70.70;17.60;100062.00;;;;5011945;28;20221;-46
2022/11/08 09:28:28;;;;;;;4.63;2.10;;;16.50;70.80;17.60;100059.00;;;;5011635;28;20168;-47
2022/11/08 09:30:55;;;;;;;3.30;2.07;;;16.50;70.60;17.60;100047.00;;;;5011170;28;20713;-46
2022/11/08 09:33:21;;;;;;;2.70;1.90;;;16.50;70.60;17.60;100056.00;;;;5011171;28;20204;-47
2022/11/08 09:35:47;;;;;;;2.87;2.10;;;16.40;70.50;17.60;100054.00;;;;5011584;28;20196;-48
2022/11/08 09:38:13;;;;;;;4.60;2.13;;;16.40;70.50;17.60;100056.00;;;;5011599;28;20176;-46
2022/11/08 09:40:41;;;;;;;3.33;2.00;;;16.50;70.60;17.60;100065.00;;;;5011711;28;20164;-48
2022/11/08 09:43:37;;;;;;;3.53;2.10;;;16.50;70.70;17.60;100078.00;;;;4978300;28;20538;-46
2022/11/08 09:46:03;;;;;;;2.40;1.83;;;16.50;70.70;17.50;100064.00;;;;5011404;28;20159;-48
2022/11/08 09:48:34;;;;;;;2.87;1.90;;;16.50;70.70;17.60;100066.00;;;;5011592;28;20563;-47
2022/11/08 09:51:08;;;;;;;2.73;1.80;;;16.50;70.70;17.50;100062.00;;;;4983263;28;20647;-48
2022/11/08 09:53:39;;;;;;;3.57;2.10;;;16.50;70.70;17.50;99962.00;;;;4980192;28;20334;-48
2022/11/08 09:56:36;;;;;;;2.67;2.10;;;16.50;70.80;17.50;100043.00;;;;4993488;28;20290;-47
2022/11/08 09:59:29;;;;;;;2.07;1.87;;;16.50;70.70;17.50;100028.00;;;;4996388;28;20266;-46
2022/11/08 10:01:54;;;;;;;1.87;1.70;;;16.50;70.70;17.50;100030.00;;;;4993253;28;20622;-49
2022/11/08 10:04:22;;;;;;;2.13;1.80;;;16.50;70.70;17.50;100042.00;;;;4992980;28;20191;-46
2022/11/08 10:07:16;;;;;;;2.27;1.87;;;16.50;70.70;17.50;100026.00;;;;4976472;28;20244;-47
2022/11/08 10:10:22;;;;;;;2.20;1.80;;;16.40;70.50;17.50;100032.00;;;;5010604;28;20167;-48
2022/11/08 10:13:28;;;;;;;2.50;1.83;;;16.50;70.70;17.50;100026.00;;;;4997505;28;20200;-48
2022/11/08 10:16:21;;;;;;;3.13;1.80;;;16.50;70.70;17.50;100027.00;;;;4978858;28;20215;-46
2022/11/08 10:19:19;;;;;;;2.27;1.70;;;16.40;70.50;17.50;100041.00;;;;4994566;28;20173;-45
2022/11/08 10:22:04;;;;;;;1.90;1.80;;;16.40;70.50;17.50;100026.00;;;;4993105;28;20363;-47
2022/11/08 10:25:06;;;;;;;2.47;2.10;;;16.50;70.50;17.50;100015.00;;;;4977899;28;20206;-46
2022/11/08 10:27:38;;;;;;;2.20;1.87;;;16.50;70.50;17.50;100023.00;;;;4993341;28;20664;-46
2022/11/08 10:30:51;;;;;;;2.80;1.90;;;16.50;70.50;17.50;100009.00;;;;5010778;28;20174;-49
2022/11/08 10:33:34;;;;;;;2.80;2.00;;;16.50;70.50;17.50;99991.00;;;;4988630;28;20207;-46
2022/11/08 10:36:07;;;;;;;2.77;1.90;;;16.50;70.50;17.50;99997.00;;;;4981369;28;20223;-47
2022/11/08 10:38:45;;;;;;;2.10;1.83;;;16.50;70.50;17.50;99983.00;;;;4992874;28;20173;-47
2022/11/08 10:41:49;;;;;;;2.27;1.70;;;16.50;70.40;17.50;99990.00;;;;4977246;28;20484;-47
2022/11/08 10:44:19;;;;;;;1.70;1.60;;;16.50;70.40;17.50;99987.00;;;;4983013;28;20298;-48
2022/11/08 10:46:49;;;;;;;2.73;1.80;;;16.50;70.40;17.50;99986.00;;;;4961210;28;20331;-46
2022/11/08 10:49:33;;;;;;;2.10;1.90;;;16.50;70.40;17.50;99993.00;;;;4976664;28;20181;-46
2022/11/08 10:52:01;;;;;;;2.67;1.90;;;16.50;70.40;17.50;99983.00;;;;5009467;28;20209;-46
2022/11/08 10:54:55;;;;;;;2.50;2.00;;;16.50;70.30;17.50;99984.00;;;;5009908;28;20598;-47
2022/11/08 10:57:30;;;;;;;2.57;1.97;;;16.50;70.30;17.50;99991.00;;;;4992559;28;20183;-47
2022/11/08 10:59:57;;;;;;;2.00;1.80;;;16.50;70.30;17.60;99975.00;;;;5010195;28;20167;-47
2022/11/08 11:02:33;;;;;;;2.70;1.87;;;16.50;70.30;17.60;99977.00;;;;4991702;28;20239;-46
2022/11/08 11:05:14;;;;;;;2.37;1.83;;;16.50;70.20;17.60;99970.00;;;;4978570;28;20251;-47
2022/11/08 11:07:43;;;;;;;2.17;1.90;;;16.50;70.10;17.60;99974.00;;;;5012100;28;20183;-47
2022/11/08 11:10:26;;;;;;;2.00;1.77;;;16.50;70.10;17.60;99977.00;;;;5010218;28;20177;-46
2022/11/08 11:13:12;;;;;;;1.73;1.60;;;16.50;70.10;17.60;99963.00;;;;5009779;28;20275;-47
2022/11/08 11:15:51;;;;;;;1.90;1.80;;;16.50;70.20;17.60;99958.00;;;;5010113;28;20175;-47